createdAt,value
2023-04-01T00:00:20.727Z,93705.66
2023-04-01T00:02:48.821Z,93706.41
2023-04-01T00:05:17.364Z,93704.75
2023-04-01T00:07:45.035Z,93706.72
2023-04-01T00:10:13.916Z,93700.38
2023-04-01T00:12:43.210Z,93696.00
2023-04-01T00:15:13.028Z,93686.25
2023-04-01T00:17:40.822Z,93695.69
2023-04-01T00:20:10.292Z,93678.09
2023-04-01T00:22:37.923Z,93679.66
2023-04-01T00:25:06.494Z,93687.78
2023-04-01T00:27:34.136Z,93686.69
2023-04-01T00:30:03.242Z,93688.25
2023-04-01T00:32:31.571Z,93689.28
2023-04-01T00:35:00.455Z,93690.72
2023-04-01T00:37:28.687Z,93682.38
2023-04-01T00:39:56.676Z,93686.44
2023-04-01T00:42:24.428Z,93685.16
2023-04-01T00:44:53.358Z,93688.41
2023-04-01T00:47:23.137Z,93690.28
2023-04-01T00:49:52.851Z,93682.50
2023-04-01T00:52:23.661Z,93686.59
2023-04-01T00:54:53.916Z,93695.59
2023-04-01T00:57:24.261Z,93688.03
2023-04-01T00:59:53.666Z,93684.84
2023-04-01T01:02:23.841Z,93688.94
2023-04-01T01:04:51.511Z,93690.38
2023-04-01T01:07:26.455Z,93687.16
2023-04-01T01:10:00.742Z,93687.47
2023-04-01T01:12:32.293Z,93677.47
2023-04-01T01:15:04.893Z,93678.06
2023-04-01T01:17:42.604Z,93681.31
2023-04-01T01:20:34.023Z,93684.81
2023-04-01T01:23:35.875Z,93689.97
2023-04-01T01:26:22.035Z,93690.53
2023-04-01T01:28:54.908Z,93687.03
2023-04-01T01:31:25.826Z,93685.13
2023-04-01T01:34:02.434Z,93681.38
2023-04-01T01:36:35.610Z,93687.03
2023-04-01T01:39:03.869Z,93684.63
2023-04-01T01:41:33.968Z,93687.09
2023-04-01T01:44:02.021Z,93680.88
2023-04-01T01:46:30.614Z,93678.72
2023-04-01T01:48:59.281Z,93681.44
2023-04-01T01:51:28.902Z,93681.97
2023-04-01T01:53:57.949Z,93685.19
2023-04-01T01:56:28.168Z,93685.13
2023-04-01T01:58:58.060Z,93681.44
2023-04-01T02:01:27.924Z,93691.69
2023-04-01T02:03:55.980Z,93677.06
2023-04-01T02:06:25.533Z,93667.91
2023-04-01T02:08:55.708Z,93678.72
2023-04-01T02:11:28.422Z,93679.03
2023-04-01T02:13:58.237Z,93678.53
2023-04-01T02:16:28.910Z,93682.03
2023-04-01T02:18:57.677Z,93693.94
2023-04-01T02:21:26.861Z,93689.84
2023-04-01T02:23:55.661Z,93682.28
2023-04-01T02:26:26.066Z,93684.44
2023-04-01T02:28:55.197Z,93700.34
2023-04-01T02:31:23.816Z,93697.66
2023-04-01T02:33:51.834Z,93696.59
2023-04-01T02:36:19.769Z,93707.91
2023-04-01T02:38:48.839Z,93702.50
2023-04-01T02:41:16.518Z,93691.38
2023-04-01T02:43:45.565Z,93710.06
2023-04-01T02:46:13.265Z,93705.47
2023-04-01T02:48:40.929Z,93704.66
2023-04-01T02:51:08.791Z,93698.91
2023-04-01T02:53:36.500Z,93705.94
2023-04-01T02:56:04.314Z,93710.00
2023-04-01T02:58:31.986Z,93703.75
2023-04-01T03:01:01.118Z,93708.09
2023-04-01T03:03:28.795Z,93715.06
2023-04-01T03:05:57.307Z,93694.53
2023-04-01T03:08:24.955Z,93699.38
2023-04-01T03:10:52.605Z,93700.13
2023-04-01T03:13:20.271Z,93704.38
2023-04-01T03:15:47.980Z,93705.22
2023-04-01T03:18:17.114Z,93702.16
2023-04-01T03:20:44.814Z,93707.50
2023-04-01T03:23:12.496Z,93708.34
2023-04-01T03:25:40.137Z,93707.94
2023-04-01T03:28:07.789Z,93710.16
2023-04-01T03:30:35.482Z,93716.41
2023-04-01T03:33:03.911Z,93721.47
2023-04-01T03:35:33.267Z,93716.66
2023-04-01T03:38:01.072Z,93716.06
2023-04-01T03:40:28.690Z,93716.06
2023-04-01T03:42:57.104Z,93719.84
2023-04-01T03:45:24.862Z,93717.06
2023-04-01T03:47:52.522Z,93709.53
2023-04-01T03:50:20.630Z,93717.69
2023-04-01T03:52:49.650Z,93707.44
2023-04-01T03:55:19.016Z,93716.66
2023-04-01T03:57:46.670Z,93708.84
2023-04-01T04:00:14.824Z,93712.91
2023-04-01T04:02:42.483Z,93721.56
2023-04-01T04:05:10.671Z,93718.31
2023-04-01T04:07:38.574Z,93720.53
2023-04-01T04:10:08.874Z,93720.28
2023-04-01T04:12:36.481Z,93728.13
2023-04-01T04:15:04.269Z,93726.59
2023-04-01T04:17:31.897Z,93728.22
2023-04-01T04:19:59.525Z,93721.75
2023-04-01T04:22:27.242Z,93725.00
2023-04-01T04:24:54.838Z,93736.88
2023-04-01T04:27:23.805Z,93738.84
2023-04-01T04:29:51.405Z,93739.66
2023-04-01T04:32:19.027Z,93732.13
2023-04-01T04:34:46.686Z,93739.16
2023-04-01T04:37:14.337Z,93737.28
2023-04-01T04:39:41.964Z,93735.13
2023-04-01T04:42:09.650Z,93744.88
2023-04-01T04:44:38.834Z,93737.66
2023-04-01T04:47:06.533Z,93750.97
2023-04-01T04:49:34.267Z,93749.91
2023-04-01T04:52:01.909Z,93756.88
2023-04-01T04:54:29.512Z,93757.19
2023-04-01T04:56:57.304Z,93747.78
2023-04-01T04:59:25.027Z,93754.56
2023-04-01T05:01:54.079Z,93754.06
2023-04-01T05:04:21.688Z,93759.22
2023-04-01T05:06:49.333Z,93747.34
2023-04-01T05:09:17.126Z,93766.34
2023-04-01T05:11:44.760Z,93751.41
2023-04-01T05:14:15.141Z,93754.38
2023-04-01T05:16:42.831Z,93753.88
2023-04-01T05:19:11.893Z,93752.22
2023-04-01T05:21:39.538Z,93753.56
2023-04-01T05:24:09.757Z,93747.09
2023-04-01T05:26:38.277Z,93746.81
2023-04-01T05:29:06.364Z,93744.28
2023-04-01T05:31:34.078Z,93746.19
2023-04-01T05:34:01.690Z,93744.25
2023-04-01T05:36:31.119Z,93750.47
2023-04-01T05:38:58.743Z,93735.88
2023-04-01T05:41:26.392Z,93744.03
2023-04-01T05:43:54.049Z,93739.47
2023-04-01T05:46:21.836Z,93734.06
2023-04-01T05:48:49.558Z,93749.00
2023-04-01T05:51:17.777Z,93742.03
2023-04-01T05:53:46.818Z,93744.00
2023-04-01T05:56:14.759Z,93746.75
2023-04-01T05:58:42.441Z,93747.06
2023-04-01T06:01:15.944Z,93742.41
2023-04-01T06:03:44.461Z,93725.66
2023-04-01T06:06:16.497Z,93737.09
2023-04-01T06:08:46.318Z,93736.88
2023-04-01T06:11:21.359Z,93734.50
2023-04-01T06:14:01.760Z,93732.66
2023-04-01T06:16:36.997Z,93731.31
2023-04-01T06:19:20.207Z,93724.91
2023-04-01T06:22:26.758Z,93727.72
2023-04-01T06:25:18.651Z,93729.53
2023-04-01T06:27:56.586Z,93720.94
2023-04-01T06:30:34.594Z,93725.59
2023-04-01T06:33:19.456Z,93731.84
2023-04-01T06:36:04.533Z,93725.34
2023-04-01T06:38:47.893Z,93738.66
2023-04-01T06:41:48.297Z,93743.50
2023-04-01T06:44:20.353Z,93737.00
2023-04-01T06:46:50.260Z,93746.56
2023-04-01T06:49:33.606Z,93739.22
2023-04-01T06:52:06.344Z,93748.19
2023-04-01T06:54:37.071Z,93743.84
2023-04-01T06:57:14.457Z,93743.25
2023-04-01T06:59:43.080Z,93744.38
2023-04-01T07:02:20.896Z,93759.31
2023-04-01T07:04:51.014Z,93738.97
2023-04-01T07:07:23.926Z,93756.94
2023-04-01T07:09:53.814Z,93749.09
2023-04-01T07:12:28.339Z,93739.66
2023-04-01T07:14:56.909Z,93751.88
2023-04-01T07:17:27.184Z,93753.06
2023-04-01T07:19:58.474Z,93747.22
2023-04-01T07:22:31.011Z,93748.38
2023-04-01T07:24:59.843Z,93750.59
2023-04-01T07:27:28.851Z,93732.16
2023-04-01T07:29:58.142Z,93739.75
2023-04-01T07:32:36.180Z,93740.84
2023-04-01T07:35:26.348Z,93730.25
2023-04-01T07:38:10.923Z,93736.19
2023-04-01T07:40:43.748Z,93752.81
2023-04-01T07:43:21.925Z,93744.94
2023-04-01T07:45:56.110Z,93739.34
2023-04-01T07:48:29.298Z,93750.75
2023-04-01T07:51:01.026Z,93742.88
2023-04-01T07:53:33.282Z,93747.47
2023-04-01T07:56:02.495Z,93751.78
2023-04-01T07:58:39.974Z,93759.94
2023-04-01T08:01:14.094Z,93759.44
2023-04-01T08:03:56.605Z,93757.00
2023-04-01T08:06:30.248Z,93766.53
2023-04-01T08:09:04.135Z,93756.78
2023-04-01T08:11:43.771Z,93749.44
2023-04-01T08:14:20.850Z,93749.44
2023-04-01T08:16:54.969Z,93753.81
2023-04-01T08:19:31.561Z,93754.88
2023-04-01T08:22:00.772Z,93743.47
2023-04-01T08:24:46.583Z,93751.91
2023-04-01T08:27:20.034Z,93747.28
2023-04-01T08:29:50.537Z,93751.91
2023-04-01T08:32:21.206Z,93759.25
2023-04-01T08:38:07.183Z,93739.69
2023-04-01T08:40:49.370Z,93752.47
2023-04-01T08:43:21.171Z,93752.16
2023-04-01T08:46:02.909Z,93751.06
2023-04-01T08:48:41.684Z,93756.50
2023-04-01T08:51:22.944Z,93740.19
2023-04-01T08:54:06.403Z,93743.16
2023-04-01T08:56:36.647Z,93760.59
2023-04-01T08:59:20.450Z,93740.97
2023-04-01T09:02:21.482Z,93751.25
2023-04-01T09:05:18.483Z,93742.50
2023-04-01T09:07:53.153Z,93740.09
2023-04-01T09:10:30.201Z,93745.53
2023-04-01T09:13:09.042Z,93757.53
2023-04-01T09:16:21.225Z,93742.81
2023-04-01T09:19:19.160Z,93729.16
2023-04-01T09:22:11.439Z,93743.06
2023-04-01T09:25:17.572Z,93731.88
2023-04-01T09:27:47.111Z,93731.91
2023-04-01T09:30:40.268Z,93734.34
2023-04-01T09:33:40.035Z,93742.00
2023-04-01T09:36:17.187Z,93723.22
2023-04-01T09:38:56.156Z,93716.91
2023-04-01T09:41:31.262Z,93715.53
2023-04-01T09:44:04.714Z,93714.94
2023-04-01T09:46:49.084Z,93714.06
2023-04-01T09:49:33.954Z,93706.66
2023-04-01T09:52:12.503Z,93711.25
2023-04-01T09:54:58.607Z,93711.25
2023-04-01T09:57:53.502Z,93701.28
2023-04-01T10:00:31.987Z,93724.16
2023-04-01T10:03:37.686Z,93707.38
2023-04-01T10:06:38.974Z,93707.31
2023-04-01T10:09:50.759Z,93710.09
2023-04-01T10:12:48.189Z,93711.97
2023-04-01T10:15:40.216Z,93713.06
2023-04-01T10:18:26.496Z,93716.25
2023-04-01T10:21:35.692Z,93718.13
2023-04-01T10:24:36.667Z,93721.41
2023-04-01T10:27:24.006Z,93727.34
2023-04-01T10:30:39.043Z,93718.38
2023-04-01T10:33:57.027Z,93733.88
2023-04-01T10:36:42.607Z,93720.00
2023-04-01T10:39:22.538Z,93726.06
2023-04-01T10:42:13.936Z,93735.72
2023-04-01T10:45:06.867Z,93738.50
2023-04-01T10:48:03.734Z,93739.06
2023-04-01T10:50:45.146Z,93732.00
2023-04-01T10:53:45.042Z,93733.91
2023-04-01T10:56:42.644Z,93737.97
2023-04-01T10:59:45.624Z,93738.56
2023-04-01T11:02:56.982Z,93730.38
2023-04-01T11:06:27.352Z,93734.75
2023-04-01T11:09:28.619Z,93747.53
2023-04-01T11:12:36.904Z,93725.19
2023-04-01T11:15:26.037Z,93736.94
2023-04-01T11:18:09.218Z,93747.81
2023-04-01T11:21:16.029Z,93757.56
2023-04-01T11:24:04.507Z,93751.34
2023-04-01T11:26:36.080Z,93765.75
2023-04-01T11:29:21.240Z,93772.28
2023-04-01T11:31:57.621Z,93775.50
2023-04-01T11:35:04.092Z,93774.69
2023-04-01T11:37:42.131Z,93785.59
2023-04-01T11:40:24.536Z,93772.03
2023-04-01T11:42:58.950Z,93774.13
2023-04-01T11:45:35.985Z,93780.66
2023-04-01T11:48:18.191Z,93773.66
2023-04-01T11:50:58.114Z,93765.16
2023-04-01T11:53:34.897Z,93778.41
2023-04-01T11:56:11.729Z,93766.13
2023-04-01T11:58:56.702Z,93760.72
2023-04-01T12:01:34.199Z,93770.41
2023-04-01T12:04:35.070Z,93762.84
2023-04-01T12:07:08.309Z,93769.09
2023-04-01T12:09:44.082Z,93774.78
2023-04-01T12:12:18.741Z,93775.31
2023-04-01T12:14:52.187Z,93774.38
2023-04-01T12:17:30.429Z,93780.94
2023-04-01T12:20:01.404Z,93770.03
2023-04-01T12:22:36.772Z,93771.38
2023-04-01T12:25:19.937Z,93770.03
2023-04-01T12:27:54.228Z,93765.34
2023-04-01T12:30:45.195Z,93771.63
2023-04-01T12:33:24.986Z,93770.75
2023-04-01T12:35:58.752Z,93766.16
2023-04-01T12:38:33.844Z,93761.78
2023-04-01T12:41:12.087Z,93777.53
2023-04-01T12:44:18.626Z,93779.75
2023-04-01T12:47:01.316Z,93778.38
2023-04-01T12:49:51.839Z,93785.16
2023-04-01T12:52:21.806Z,93786.84
2023-04-01T12:55:24.538Z,93787.34
2023-04-01T12:57:57.817Z,93793.88
2023-04-01T13:00:34.855Z,93784.19
2023-04-01T13:03:15.460Z,93782.00
2023-04-01T13:06:12.522Z,93787.44
2023-04-01T13:08:42.876Z,93788.19
2023-04-01T13:11:12.117Z,93791.22
2023-04-01T13:13:49.672Z,93800.63
2023-04-01T13:16:19.366Z,93803.84
2023-04-01T13:18:56.411Z,93796.00
2023-04-01T13:21:30.731Z,93794.91
2023-04-01T13:24:03.261Z,93809.25
2023-04-01T13:26:37.022Z,93793.28
2023-04-01T13:29:09.718Z,93799.81
2023-04-01T13:31:53.929Z,93801.91
2023-04-01T13:34:34.730Z,93799.97
2023-04-01T13:37:11.214Z,93797.56
2023-04-01T13:39:53.349Z,93801.94
2023-04-01T13:42:25.893Z,93793.25
2023-04-01T13:44:58.922Z,93792.19
2023-04-01T13:47:41.897Z,93804.09
2023-04-01T13:50:29.215Z,93799.81
2023-04-01T13:53:41.328Z,93800.63
2023-04-01T13:56:27.480Z,93805.22
2023-04-01T13:59:04.490Z,93806.38
2023-04-01T14:01:39.671Z,93798.28
2023-04-01T14:04:32.818Z,93811.59
2023-04-01T14:07:07.362Z,93811.88
2023-04-01T14:09:47.625Z,93802.44
2023-04-01T14:12:24.278Z,93813.03
2023-04-01T14:15:03.250Z,93810.88
2023-04-01T14:17:45.582Z,93811.94
2023-04-01T14:20:18.283Z,93804.72
2023-04-01T14:22:48.077Z,93822.31
2023-04-01T14:25:41.073Z,93812.78
2023-04-01T14:28:16.730Z,93806.53
2023-04-01T14:31:07.341Z,93807.38
2023-04-01T14:33:43.768Z,93810.84
2023-04-01T14:36:36.318Z,93809.81
2023-04-01T14:39:09.090Z,93818.03
2023-04-01T14:41:44.607Z,93808.25
2023-04-01T14:44:29.806Z,93813.66
2023-04-01T14:47:24.858Z,93797.91
2023-04-01T14:49:55.334Z,93795.78
2023-04-01T14:52:28.743Z,93801.50
2023-04-01T14:54:56.921Z,93809.44
2023-04-01T14:57:27.718Z,93809.50
2023-04-01T15:00:02.324Z,93809.78
2023-04-01T15:02:42.914Z,93807.91
2023-04-01T15:05:17.895Z,93804.41
2023-04-01T15:08:02.964Z,93806.31
2023-04-01T15:10:52.943Z,93807.97
2023-04-01T15:13:27.776Z,93815.03
2023-04-01T15:16:06.545Z,93811.25
2023-04-01T15:18:41.820Z,93814.78
2023-04-01T15:21:19.407Z,93820.53
2023-04-01T15:23:56.818Z,93817.56
2023-04-01T15:26:34.282Z,93827.34
2023-04-01T15:29:10.432Z,93827.09
2023-04-01T15:31:42.751Z,93828.19
2023-04-01T15:34:20.381Z,93827.09
2023-04-01T15:36:55.456Z,93831.47
2023-04-01T15:39:26.634Z,93832.56
2023-04-01T15:42:08.486Z,93829.31
2023-04-01T15:44:45.486Z,93833.38
2023-04-01T15:47:38.969Z,93842.31
2023-04-01T15:53:46.470Z,93855.03
2023-04-01T15:56:24.925Z,93836.88
2023-04-01T15:59:01.417Z,93843.91
2023-04-01T16:01:36.952Z,93848.25
2023-04-01T16:04:20.045Z,93845.00
2023-04-01T16:06:58.606Z,93851.78
2023-04-01T16:10:03.604Z,93845.81
2023-04-01T16:12:43.717Z,93839.31
2023-04-01T16:15:19.557Z,93836.84
2023-04-01T16:18:08.377Z,93846.31
2023-04-01T16:20:46.070Z,93832.72
2023-04-01T16:23:19.688Z,93843.34
2023-04-01T16:25:52.057Z,93847.44
2023-04-01T16:28:24.284Z,93842.25
2023-04-01T16:30:57.196Z,93844.41
2023-04-01T16:33:29.769Z,93846.56
2023-04-01T16:36:00.366Z,93843.31
2023-04-01T16:38:35.732Z,93859.03
2023-04-01T16:41:14.013Z,93852.78
2023-04-01T16:43:47.579Z,93863.34
2023-04-01T16:46:24.153Z,93847.59
2023-04-01T16:49:02.319Z,93838.31
2023-04-01T16:51:38.215Z,93851.34
2023-04-01T16:54:08.857Z,93855.41
2023-04-01T16:56:44.339Z,93857.81
2023-04-01T16:59:20.746Z,93859.72
2023-04-01T17:01:53.694Z,93850.47
2023-04-01T17:04:27.679Z,93847.75
2023-04-01T17:06:59.635Z,93854.56
2023-04-01T17:09:39.095Z,93849.13
2023-04-01T17:12:12.461Z,93847.47
2023-04-01T17:14:46.834Z,93865.94
2023-04-01T17:17:21.624Z,93855.84
2023-04-01T17:19:59.668Z,93860.50
2023-04-01T17:22:34.727Z,93855.84
2023-04-01T17:25:18.584Z,93856.16
2023-04-01T17:27:54.065Z,93858.56
2023-04-01T17:30:29.986Z,93858.81
2023-04-01T17:33:25.382Z,93865.88
2023-04-01T17:35:59.879Z,93863.66
2023-04-01T17:38:42.972Z,93863.66
2023-04-01T17:41:18.316Z,93876.84
2023-04-01T17:43:51.131Z,93879.84
2023-04-01T17:46:31.890Z,93887.72
2023-04-01T17:49:04.941Z,93886.34
2023-04-01T17:51:36.319Z,93896.94
2023-04-01T17:54:13.699Z,93897.69
2023-04-01T17:56:50.641Z,93895.47
2023-04-01T17:59:24.202Z,93893.81
2023-04-01T18:02:00.355Z,93903.28
2023-04-01T18:04:42.688Z,93912.47
2023-04-01T18:07:26.288Z,93908.44
2023-04-01T18:10:02.278Z,93906.25
2023-04-01T18:12:34.934Z,93913.84
2023-04-01T18:15:13.940Z,93923.53
2023-04-01T18:17:51.843Z,93919.19
2023-04-01T18:20:29.861Z,93921.63
2023-04-01T18:23:01.151Z,93925.41
2023-04-01T18:25:31.283Z,93919.94
2023-04-01T18:28:17.434Z,93935.91
2023-04-01T18:30:53.594Z,93936.97
2023-04-01T18:33:25.324Z,93939.06
2023-04-01T18:35:55.734Z,93935.81
2023-04-01T18:38:30.418Z,93934.22
2023-04-01T18:41:14.188Z,93946.59
2023-04-01T18:43:48.696Z,93947.09
2023-04-01T18:46:24.710Z,93949.75
2023-04-01T18:48:57.028Z,93958.09
2023-04-01T18:51:28.566Z,93944.75
2023-04-01T18:53:59.508Z,93942.78
2023-04-01T18:56:30.452Z,93939.47
2023-04-01T18:59:06.357Z,93936.41
2023-04-01T19:01:41.627Z,93945.38
2023-04-01T19:04:21.452Z,93942.38
2023-04-01T19:06:52.839Z,93934.25
2023-04-01T19:09:24.331Z,93947.50
2023-04-01T19:12:33.323Z,93942.88
2023-04-01T19:15:22.508Z,93947.63
2023-04-01T19:17:59.299Z,93957.84
2023-04-01T19:20:31.629Z,93960.28
2023-04-01T19:23:28.177Z,93965.16
2023-04-01T19:25:57.580Z,93961.09
2023-04-01T19:28:33.702Z,93951.50
2023-04-01T19:31:05.013Z,93979.31
2023-04-01T19:33:46.917Z,93967.50
2023-04-01T19:36:21.664Z,93973.16
2023-04-01T19:38:55.722Z,93978.75
2023-04-01T19:41:34.555Z,93969.84
2023-04-01T19:44:07.509Z,93974.44
2023-04-01T19:46:38.737Z,93971.44
2023-04-01T19:49:23.536Z,93977.28
2023-04-01T19:51:54.553Z,93978.56
2023-04-01T19:54:29.208Z,93975.16
2023-04-01T19:57:05.456Z,93980.56
2023-04-01T19:59:37.068Z,93989.44
2023-04-01T20:02:26.629Z,93989.69
2023-04-01T20:04:57.309Z,93989.03
2023-04-01T20:07:29.279Z,93993.88
2023-04-01T20:10:00.875Z,93992.97
2023-04-01T20:12:38.349Z,93998.66
2023-04-01T20:15:07.086Z,93998.81
2023-04-01T20:17:40.984Z,94002.00
2023-04-01T20:20:21.854Z,94001.16
2023-04-01T20:23:02.021Z,93996.75
2023-04-01T20:25:34.431Z,94001.56
2023-04-01T20:28:04.418Z,94006.16
2023-04-01T20:30:55.436Z,93999.63
2023-04-01T20:33:37.682Z,94006.56
2023-04-01T20:36:15.094Z,94010.59
2023-04-01T20:39:12.107Z,94005.19
2023-04-01T20:41:42.913Z,94004.34
2023-04-01T20:44:13.036Z,94005.19
2023-04-01T20:46:50.994Z,94010.59
2023-04-01T20:49:45.995Z,94012.22
2023-04-01T20:52:28.200Z,94016.00
2023-04-01T20:55:20.536Z,94011.50
2023-04-01T20:57:54.596Z,94017.72
2023-04-01T21:00:30.585Z,94016.66
2023-04-01T21:03:09.378Z,94019.38
2023-04-01T21:05:53.905Z,94023.63
2023-04-01T21:08:27.786Z,94025.81
2023-04-01T21:11:03.770Z,94031.22
2023-04-01T21:13:47.226Z,94029.03
2023-04-01T21:16:26.049Z,94034.44
2023-04-01T21:19:06.284Z,94042.06
2023-04-01T21:21:52.151Z,94043.38
2023-04-01T21:24:45.205Z,94041.81
2023-04-01T21:27:18.415Z,94049.59
2023-04-01T21:29:55.462Z,94047.97
2023-04-01T21:32:33.521Z,94051.25
2023-04-01T21:35:06.781Z,94055.81
2023-04-01T21:37:45.239Z,94053.72
2023-04-01T21:41:09.702Z,94059.44
2023-04-01T21:44:25.672Z,94048.94
2023-04-01T21:47:24.465Z,94052.47
2023-04-01T21:50:11.896Z,94053.06
2023-04-01T21:53:02.278Z,94067.41
2023-04-01T21:56:03.423Z,94060.44
2023-04-01T21:58:48.952Z,94060.75
2023-04-01T22:01:29.617Z,94076.50
2023-04-01T22:04:21.601Z,94072.50
2023-04-01T22:06:52.551Z,94076.81
2023-04-01T22:09:23.736Z,94077.19
2023-04-01T22:12:02.469Z,94080.44
2023-04-01T22:14:34.526Z,94079.13
2023-04-01T22:17:09.325Z,94076.19
2023-04-01T22:19:42.330Z,94077.84
2023-04-01T22:22:15.382Z,94078.66
2023-04-01T22:24:51.775Z,94082.19
2023-04-01T22:27:24.781Z,94067.00
2023-04-01T22:30:01.422Z,94071.09
2023-04-01T22:32:34.008Z,94064.06
2023-04-01T22:35:08.858Z,94071.94
2023-04-01T22:37:42.462Z,94067.34
2023-04-01T22:40:22.573Z,94081.91
2023-04-01T22:42:56.220Z,94081.09
2023-04-01T22:45:45.435Z,94077.09
2023-04-01T22:48:17.879Z,94073.31
2023-04-01T22:50:48.990Z,94077.91
2023-04-01T22:53:24.596Z,94083.56
2023-04-01T22:55:54.080Z,94081.91
2023-04-01T22:58:26.147Z,94089.22
2023-04-01T23:00:57.759Z,94086.03
2023-04-01T23:03:29.881Z,94085.72
2023-04-01T23:05:58.195Z,94079.47
2023-04-01T23:09:07.132Z,94083.81
2023-04-01T23:11:37.271Z,94080.78
2023-04-01T23:14:26.869Z,94085.72
2023-04-01T23:16:56.932Z,94093.50
2023-04-01T23:19:27.178Z,94094.06
2023-04-01T23:22:01.415Z,94090.19
2023-04-01T23:24:33.895Z,94099.47
2023-04-01T23:27:04.340Z,94101.94
2023-04-01T23:29:32.012Z,94108.16
2023-04-01T23:32:00.798Z,94113.56
2023-04-01T23:34:32.712Z,94103.25
2023-04-01T23:37:04.253Z,94109.72
2023-04-01T23:39:34.756Z,94106.44
2023-04-01T23:42:05.391Z,94108.31
2023-04-01T23:44:33.469Z,94109.13
2023-04-01T23:47:01.765Z,94107.50
2023-04-01T23:49:35.992Z,94107.50
2023-04-01T23:52:06.663Z,94111.84
2023-04-01T23:54:36.170Z,94115.38
2023-04-01T23:57:11.667Z,94114.81
2023-04-01T23:59:39.423Z,94105.84
